createdAt,value
2023-05-07T00:04:20.962Z,100.00
2023-05-07T00:09:22.865Z,100.00
2023-05-07T00:14:24.685Z,100.00
2023-05-07T00:19:26.379Z,100.00
2023-05-07T00:24:28.022Z,100.00
2023-05-07T00:29:29.688Z,100.00
2023-05-07T00:34:31.290Z,100.00
2023-05-07T00:39:32.936Z,100.00
2023-05-07T00:44:34.703Z,100.00
2023-05-07T00:49:42.092Z,100.00
2023-05-07T00:54:44.403Z,100.00
2023-05-07T00:59:46.069Z,100.00
2023-05-07T01:04:47.714Z,100.00
2023-05-07T01:09:51.351Z,100.00
2023-05-07T01:14:56.331Z,100.00
2023-05-07T01:19:58.069Z,100.00
2023-05-07T01:25:02.551Z,100.00
2023-05-07T01:30:06.166Z,100.00
2023-05-07T01:35:12.000Z,100.00
2023-05-07T01:40:14.716Z,100.00
2023-05-07T01:45:16.413Z,100.00
2023-05-07T01:50:21.461Z,100.00
2023-05-07T01:55:23.257Z,100.00
2023-05-07T02:00:25.203Z,100.00
2023-05-07T02:05:26.989Z,100.00
2023-05-07T02:10:35.081Z,100.00
2023-05-07T02:15:37.455Z,100.00
2023-05-07T02:20:39.955Z,100.00
2023-05-07T02:25:41.769Z,100.00
2023-05-07T02:30:43.649Z,100.00
2023-05-07T02:35:45.646Z,100.00
2023-05-07T02:40:55.211Z,100.00
2023-05-07T02:46:08.920Z,100.00
2023-05-07T02:51:14.237Z,100.00
2023-05-07T02:56:17.712Z,100.00
2023-05-07T03:01:19.404Z,100.00
2023-05-07T03:06:28.196Z,100.00
2023-05-07T03:11:30.067Z,100.00
2023-05-07T03:16:31.888Z,100.00
2023-05-07T03:21:34.876Z,100.00
2023-05-07T03:26:36.614Z,100.00
2023-05-07T03:31:38.746Z,100.00
2023-05-07T03:36:40.428Z,100.00
2023-05-07T03:41:44.910Z,100.00
2023-05-07T03:46:46.771Z,100.00
2023-05-07T03:51:48.588Z,100.00
2023-05-07T03:56:51.055Z,100.00
2023-05-07T04:01:53.237Z,100.00
2023-05-07T04:06:57.836Z,100.00
2023-05-07T04:11:59.567Z,100.00
2023-05-07T04:17:01.494Z,100.00
2023-05-07T04:22:04.410Z,100.00
2023-05-07T04:27:07.472Z,100.00
2023-05-07T04:32:10.770Z,100.00
2023-05-07T04:37:15.293Z,100.00
2023-05-07T04:42:18.755Z,100.00
2023-05-07T04:47:27.000Z,100.00
2023-05-07T04:52:28.889Z,100.00
2023-05-07T04:57:30.713Z,100.00
2023-05-07T05:02:32.423Z,100.00
2023-05-07T05:07:36.044Z,100.00
2023-05-07T05:12:39.060Z,100.00
2023-05-07T05:17:41.401Z,100.00
2023-05-07T05:22:43.770Z,100.00
2023-05-07T05:27:47.443Z,100.00
2023-05-07T05:32:49.520Z,100.00
2023-05-07T05:37:54.739Z,100.00
2023-05-07T05:42:57.466Z,100.00
2023-05-07T05:48:01.382Z,100.00
2023-05-07T05:53:04.096Z,100.00
2023-05-07T05:58:05.858Z,100.00
2023-05-07T06:03:11.597Z,100.00
2023-05-07T06:08:14.475Z,100.00
2023-05-07T06:13:17.695Z,100.00
2023-05-07T06:18:19.486Z,100.00
2023-05-07T06:23:22.899Z,100.00
2023-05-07T06:28:24.689Z,100.00
2023-05-07T06:33:27.262Z,100.00
2023-05-07T06:38:28.934Z,100.00
2023-05-07T06:43:30.915Z,100.00
2023-05-07T06:48:49.486Z,100.00
2023-05-07T06:53:51.305Z,100.00
2023-05-07T06:58:53.191Z,100.00
2023-05-07T07:03:55.970Z,100.00
2023-05-07T07:08:59.505Z,100.00
2023-05-07T07:14:01.585Z,100.00
2023-05-07T07:19:05.664Z,100.00
2023-05-07T07:24:07.686Z,100.00
2023-05-07T07:29:09.326Z,100.00
2023-05-07T07:34:11.180Z,100.00
2023-05-07T07:39:13.916Z,100.00
2023-05-07T07:44:16.848Z,100.00
2023-05-07T07:49:23.419Z,99.87
2023-05-07T07:54:25.438Z,99.99
2023-05-07T07:59:27.552Z,100.00
2023-05-07T08:04:29.446Z,97.40
2023-05-07T08:09:33.453Z,95.22
2023-05-07T08:14:38.094Z,94.48
2023-05-07T08:19:41.921Z,90.45
2023-05-07T08:24:46.989Z,90.11
2023-05-07T08:29:50.165Z,91.27
2023-05-07T08:34:56.589Z,84.60
2023-05-07T08:39:58.405Z,85.07
2023-05-07T08:45:09.917Z,85.73
2023-05-07T08:50:13.063Z,85.66
2023-05-07T08:55:16.290Z,82.01
2023-05-07T09:00:18.780Z,82.58
2023-05-07T09:05:23.925Z,81.03
2023-05-07T09:10:27.140Z,80.40
2023-05-07T09:15:29.536Z,81.50
2023-05-07T09:20:32.118Z,81.61
2023-05-07T09:25:35.855Z,81.67
2023-05-07T09:30:43.342Z,80.16
2023-05-07T09:35:55.174Z,79.09
2023-05-07T09:41:09.508Z,77.60
2023-05-07T09:46:32.494Z,78.69
2023-05-07T09:51:44.542Z,79.12
2023-05-07T09:56:46.700Z,78.42
2023-05-07T10:01:59.338Z,78.42
2023-05-07T10:07:06.180Z,76.01
2023-05-07T10:12:09.547Z,74.51
2023-05-07T10:17:12.927Z,73.02
2023-05-07T10:22:17.532Z,71.95
2023-05-07T10:27:23.411Z,72.59
2023-05-07T10:32:46.602Z,75.64
2023-05-07T10:37:55.400Z,73.83
2023-05-07T10:43:09.492Z,73.26
2023-05-07T10:48:30.357Z,71.63
2023-05-07T10:53:38.719Z,71.22
2023-05-07T10:58:46.162Z,72.48
2023-05-07T11:04:15.194Z,72.61
2023-05-07T11:09:22.830Z,71.49
2023-05-07T11:14:42.256Z,71.43
2023-05-07T11:19:56.914Z,71.16
2023-05-07T11:25:08.109Z,71.93
2023-05-07T11:30:12.241Z,70.35
2023-05-07T11:35:16.379Z,66.96
2023-05-07T11:40:18.672Z,66.29
2023-05-07T11:45:26.604Z,65.33
2023-05-07T11:50:28.333Z,66.50
2023-05-07T11:55:29.996Z,63.52
2023-05-07T12:00:31.659Z,63.78
2023-05-07T12:05:33.479Z,61.96
2023-05-07T12:10:35.064Z,60.69
2023-05-07T12:15:36.711Z,59.48
2023-05-07T12:20:39.268Z,57.50
2023-05-07T12:25:47.567Z,56.38
2023-05-07T12:30:52.197Z,58.51
2023-05-07T12:35:56.104Z,65.46
2023-05-07T12:40:57.765Z,66.38
2023-05-07T12:46:03.117Z,68.13
2023-05-07T12:51:07.244Z,69.61
2023-05-07T12:56:08.936Z,71.50
2023-05-07T13:01:11.379Z,72.21
2023-05-07T13:06:15.653Z,73.91
2023-05-07T13:11:17.276Z,74.11
2023-05-07T13:21:23.536Z,76.10
2023-05-07T13:26:27.077Z,80.17
2023-05-07T13:31:29.131Z,85.42
2023-05-07T13:36:34.042Z,81.61
2023-05-07T13:41:35.861Z,81.38
2023-05-07T13:46:37.869Z,84.34
2023-05-07T13:51:39.661Z,83.38
2023-05-07T13:56:41.374Z,83.01
2023-05-07T14:01:43.034Z,83.41
2023-05-07T14:06:44.743Z,85.41
2023-05-07T14:11:48.594Z,85.70
2023-05-07T14:16:51.091Z,87.16
2023-05-07T14:21:54.369Z,87.27
2023-05-07T14:26:56.050Z,85.59
2023-05-07T14:31:57.572Z,86.77
2023-05-07T14:37:00.623Z,85.43
2023-05-07T14:42:02.346Z,86.61
2023-05-07T14:47:04.222Z,88.29
2023-05-07T14:52:07.170Z,88.58
2023-05-07T14:57:11.428Z,91.98
2023-05-07T15:02:13.528Z,95.50
2023-05-07T15:07:16.454Z,99.08
2023-05-07T15:12:18.235Z,99.38
2023-05-07T15:17:19.869Z,99.58
2023-05-07T15:22:24.929Z,100.00
2023-05-07T15:27:26.804Z,99.97
2023-05-07T15:32:28.496Z,100.00
2023-05-07T15:37:31.973Z,100.00
2023-05-07T15:42:34.526Z,97.76
2023-05-07T15:47:36.389Z,99.36
2023-05-07T15:52:39.100Z,96.08
2023-05-07T15:57:41.032Z,95.71
2023-05-07T16:02:42.864Z,94.96
2023-05-07T16:07:44.526Z,91.40
2023-05-07T16:12:46.195Z,91.22
2023-05-07T16:17:53.578Z,94.33
2023-05-07T16:22:55.551Z,93.00
2023-05-07T16:27:57.351Z,93.62
2023-05-07T16:32:58.936Z,97.14
2023-05-07T16:38:00.739Z,99.84
2023-05-07T16:43:03.939Z,100.00
2023-05-07T16:48:05.917Z,100.00
2023-05-07T16:53:07.541Z,100.00
2023-05-07T16:58:11.007Z,100.00
2023-05-07T17:03:12.975Z,100.00
2023-05-07T17:08:14.810Z,100.00
2023-05-07T17:13:16.449Z,99.54
2023-05-07T17:18:18.093Z,100.00
2023-05-07T17:23:19.632Z,100.00
2023-05-07T17:28:22.742Z,100.00
2023-05-07T17:33:24.432Z,97.78
2023-05-07T17:38:26.155Z,99.40
2023-05-07T17:43:27.865Z,99.21
2023-05-07T17:48:29.443Z,97.67
2023-05-07T17:53:31.245Z,98.53
2023-05-07T17:58:34.931Z,99.48
2023-05-07T18:03:38.395Z,98.37
2023-05-07T18:08:40.033Z,100.00
2023-05-07T18:13:41.698Z,99.25
2023-05-07T18:18:43.326Z,99.62
2023-05-07T18:23:46.171Z,99.50
2023-05-07T18:28:50.018Z,98.60
2023-05-07T18:33:53.275Z,98.40
2023-05-07T18:38:55.261Z,98.37
2023-05-07T18:43:57.067Z,99.11
2023-05-07T18:48:58.700Z,99.41
2023-05-07T18:54:02.155Z,98.64
2023-05-07T18:59:03.817Z,99.23
2023-05-07T19:04:05.557Z,99.88
2023-05-07T19:09:07.229Z,99.86
2023-05-07T19:14:11.016Z,100.00
2023-05-07T19:19:12.642Z,100.00
2023-05-07T19:24:14.348Z,100.00
2023-05-07T19:29:18.637Z,100.00
2023-05-07T19:34:22.646Z,100.00
2023-05-07T19:39:24.444Z,99.98
2023-05-07T19:44:26.129Z,100.00
2023-05-07T19:49:28.491Z,100.00
2023-05-07T19:54:30.120Z,100.00
2023-05-07T19:59:33.150Z,100.00
2023-05-07T20:04:38.176Z,100.00
2023-05-07T20:09:39.927Z,100.00
2023-05-07T20:14:41.625Z,100.00
2023-05-07T20:19:43.295Z,100.00
2023-05-07T20:24:45.034Z,100.00
2023-05-07T20:29:46.896Z,100.00
2023-05-07T20:34:48.598Z,100.00
2023-05-07T20:39:52.116Z,100.00
2023-05-07T20:44:56.484Z,100.00
2023-05-07T20:49:58.113Z,100.00
2023-05-07T20:54:59.864Z,100.00
2023-05-07T21:00:02.772Z,100.00
2023-05-07T21:05:04.988Z,100.00
2023-05-07T21:10:07.040Z,100.00
2023-05-07T21:15:09.527Z,100.00
2023-05-07T21:20:11.578Z,100.00
2023-05-07T21:25:13.758Z,100.00
2023-05-07T21:30:16.338Z,100.00
2023-05-07T21:35:18.093Z,100.00
2023-05-07T21:40:20.051Z,100.00
2023-05-07T21:45:25.103Z,100.00
2023-05-07T21:50:26.947Z,100.00
2023-05-07T21:55:28.548Z,100.00
2023-05-07T22:00:31.285Z,100.00
2023-05-07T22:05:33.137Z,100.00
2023-05-07T22:10:36.091Z,100.00
2023-05-07T22:15:49.594Z,100.00
2023-05-07T22:20:58.107Z,100.00
2023-05-07T22:25:59.780Z,100.00
2023-05-07T22:31:01.469Z,100.00
2023-05-07T22:36:03.350Z,100.00
2023-05-07T22:41:06.029Z,100.00
2023-05-07T22:46:07.826Z,100.00
2023-05-07T22:51:15.854Z,100.00
2023-05-07T22:56:17.630Z,100.00
2023-05-07T23:01:19.576Z,100.00
2023-05-07T23:06:22.735Z,100.00
2023-05-07T23:11:24.468Z,100.00
2023-05-07T23:16:26.336Z,100.00
2023-05-07T23:21:27.950Z,100.00
2023-05-07T23:26:29.664Z,100.00
2023-05-07T23:31:31.555Z,100.00
2023-05-07T23:36:33.471Z,100.00
2023-05-07T23:41:35.081Z,100.00
2023-05-07T23:46:36.939Z,100.00
2023-05-07T23:51:38.907Z,100.00
2023-05-07T23:56:40.656Z,100.00
